Forestburg, Canada
Current Conditions -  °F | °C
As of 11:00 AM on Monday 20 Oct 2014 (Local Time) from CYEG Reporting Station
Broken Clouds Broken Clouds  
Wind Chill: 61°   Ceiling: 24000
Heat Index: 61°   Visibility: 15mi
Dew Point: 39°   Wind: 6mph
Humidity: 45%   Direction: 170°S
Pressure: 29.57"   Gusts: NA
Location:  52.58°N, 112.07°W
Report Text: CYEG 201700Z 17005KT 090V180 15SM BKN240 16/04 A2957 RMK CI6 SLP022 DENSITY ALT 3400FT
Loading
Personal Weather Stations






























Interactive Weather Map
Tropical Storm Tracking
New forecast layout! Learn more

10-Day Weather Forecast

Advertisements
Track Severe Weather on mobile